Time;durP1;ratioP1;P1;durP2;ratioP2;P2;SDS_P1;SDS_P2;PMS_P1;PMS_P2;Temp;Humidity;BMP_temperature;BMP_pressure;BME280_temperature;BME280_humidity;BME280_pressure;Samples;Min_cycle;Max_cycle;Signal;HPM_P1;HPM_P2
2021/09/21 00:01:04;;;;;;;10.32;7.43;;;;;;;12.14;79.50;99452.84;5025869;28;20036;-71
2021/09/21 00:03:30;;;;;;;10.88;7.50;;;;;;;12.17;78.91;99442.41;5027764;28;20033;-70
2021/09/21 00:05:55;;;;;;;13.02;7.03;;;;;;;12.18;80.00;99451.38;5022275;28;20037;-71
2021/09/21 00:08:20;;;;;;;8.27;6.40;;;;;;;12.23;79.23;99460.59;5028710;28;20068;-70
2021/09/21 00:10:46;;;;;;;10.68;6.60;;;;;;;12.28;79.28;99473.59;5034970;28;20108;-70
2021/09/21 00:13:11;;;;;;;9.07;6.53;;;;;;;12.09;78.33;99447.16;5029686;28;20025;-70
2021/09/21 00:15:36;;;;;;;8.88;6.80;;;;;;;12.31;78.47;99475.91;5031995;28;20025;-70
2021/09/21 00:18:02;;;;;;;8.05;6.00;;;;;;;12.21;79.00;99459.16;5033769;28;20032;-71
2021/09/21 00:20:27;;;;;;;10.40;6.43;;;;;;;12.30;80.07;99476.94;5034299;28;20169;-70
2021/09/21 00:22:53;;;;;;;13.40;6.78;;;;;;;12.15;80.03;99458.03;5033640;28;20026;-71
2021/09/21 00:25:18;;;;;;;9.45;6.65;;;;;;;12.20;79.98;99468.31;5033325;28;20025;-70
2021/09/21 00:27:44;;;;;;;9.35;6.20;;;;;;;12.31;79.99;99481.31;5031716;28;20037;-71
2021/09/21 00:30:12;;;;;;;15.50;6.82;;;;;;;12.25;79.60;99482.97;5023692;28;20021;-70
2021/09/21 00:32:37;;;;;;;9.05;6.90;;;;;;;12.25;79.23;99482.13;5032654;28;20030;-71
2021/09/21 00:35:03;;;;;;;9.65;7.07;;;;;;;12.12;79.61;99465.75;5027935;28;20029;-71
2021/09/21 00:37:29;;;;;;;10.98;6.55;;;;;;;12.24;79.36;99483.16;5027516;28;20040;-71
2021/09/21 00:39:54;;;;;;;14.25;6.70;;;;;;;12.21;78.86;99487.13;5033914;28;20033;-70
2021/09/21 00:42:28;;;;;;;6.75;5.45;;;;;;;12.22;78.51;99487.94;5029169;28;20031;-70
2021/09/21 00:44:59;;;;;;;8.23;5.80;;;;;;;12.15;78.05;99487.88;5028193;28;20029;-71
2021/09/21 00:47:26;;;;;;;7.80;5.63;;;;;;;12.10;78.21;99486.81;5033516;28;20475;-70
2021/09/21 00:49:52;;;;;;;8.85;6.07;;;;;;;12.14;78.00;99490.81;5032961;28;20033;-70
2021/09/21 00:52:17;;;;;;;10.00;6.32;;;;;;;12.05;78.50;99488.25;5027827;28;20032;-70
2021/09/21 00:54:43;;;;;;;8.07;6.10;;;;;;;11.99;78.40;99494.44;5017508;28;20029;-70
2021/09/21 00:57:10;;;;;;;8.38;6.28;;;;;;;11.98;78.79;99483.78;5014875;28;20128;-71
2021/09/21 00:59:35;;;;;;;7.88;6.40;;;;;;;11.89;79.10;99471.41;5022937;28;20091;-71
2021/09/21 01:02:00;;;;;;;17.40;7.20;;;;;;;11.98;78.68;99487.34;5033095;28;20026;-70
2021/09/21 01:04:26;;;;;;;9.93;6.90;;;;;;;11.97;79.09;99477.53;5034108;28;20541;-70
2021/09/21 01:06:51;;;;;;;7.78;6.25;;;;;;;12.00;78.65;99488.00;5032997;28;20040;-71
2021/09/21 01:09:22;;;;;;;9.18;6.78;;;;;;;11.92;79.16;99485.41;5032248;28;20108;-71
2021/09/21 01:11:50;;;;;;;8.10;5.85;;;;;;;11.94;79.31;99496.88;5028035;28;20471;-70
2021/09/21 01:14:15;;;;;;;10.43;6.50;;;;;;;11.91;78.99;99486.44;5034281;28;20108;-71
2021/09/21 01:16:41;;;;;;;12.82;7.93;;;;;;;11.90;78.40;99495.63;5032831;28;20120;-71
2021/09/21 01:19:12;;;;;;;12.93;7.65;;;;;;;11.90;78.21;99483.94;5033139;28;20072;-71
2021/09/21 01:21:38;;;;;;;11.13;7.60;;;;;;;11.86;78.90;99472.63;5030281;28;20026;-71
2021/09/21 01:24:04;;;;;;;11.68;6.72;;;;;;;11.89;79.59;99482.25;5033881;28;20037;-71
2021/09/21 01:26:29;;;;;;;12.45;7.10;;;;;;;11.93;80.26;99488.97;5034056;28;20437;-71
2021/09/21 01:28:55;;;;;;;9.52;7.07;;;;;;;11.84;80.60;99477.38;5033367;28;20079;-71
2021/09/21 01:31:21;;;;;;;11.82;7.20;;;;;;;11.81;80.44;99494.84;5034171;28;20025;-71
2021/09/21 01:33:51;;;;;;;10.30;6.95;;;;;;;11.59;81.08;99472.34;5034016;28;20026;-70
2021/09/21 01:36:17;;;;;;;10.05;6.90;;;;;;;11.60;81.15;99481.31;5029281;28;20064;-71
2021/09/21 01:38:43;;;;;;;10.02;7.10;;;;;;;11.65;81.78;99503.25;5018896;28;20483;-70
2021/09/21 01:41:08;;;;;;;9.15;6.47;;;;;;;11.78;81.85;99503.38;5027103;28;20048;-70
2021/09/21 01:43:34;;;;;;;8.13;6.28;;;;;;;11.66;81.40;99493.25;5033731;28;20083;-70
2021/09/21 01:45:59;;;;;;;10.40;7.20;;;;;;;11.59;81.87;99483.19;5031865;28;20018;-70
2021/09/21 01:48:24;;;;;;;9.15;6.40;;;;;;;11.69;81.68;99495.59;5032950;28;20029;-70
2021/09/21 01:50:59;;;;;;;11.25;6.78;;;;;;;11.70;81.94;99498.09;5034316;28;20024;-70
2021/09/21 01:58:47;;;;;;;11.10;6.72;;;;;;;11.61;82.69;99501.97;5030383;28;20033;-70
2021/09/21 02:01:21;;;;;;;8.73;6.53;;;;;;;11.50;82.25;99492.50;5034296;28;20518;-73
2021/09/21 02:03:48;;;;;;;9.50;7.15;;;;;;;11.68;82.47;99518.31;5034076;28;20017;-70
2021/09/21 02:06:14;;;;;;;12.65;7.05;;;;;;;11.68;82.22;99512.88;5031698;28;20041;-70
2021/09/21 02:08:39;;;;;;;12.85;6.90;;;;;;;11.70;81.85;99516.25;5014678;28;20048;-70
2021/09/21 02:11:05;;;;;;;9.23;6.90;;;;;;;11.66;81.73;99504.09;5014836;28;20025;-70
2021/09/21 02:13:30;;;;;;;10.70;6.32;;;;;;;11.62;81.22;99501.78;5016832;28;20448;-71
2021/09/21 02:15:56;;;;;;;8.35;5.93;;;;;;;11.64;81.33;99507.00;5032127;28;20116;-71
2021/09/21 02:18:22;;;;;;;10.35;6.82;;;;;;;11.65;81.39;99513.28;5030938;28;20032;-70
2021/09/21 02:20:47;;;;;;;8.80;7.00;;;;;;;11.60;81.66;99495.69;5018394;28;20032;-70
2021/09/21 02:23:12;;;;;;;9.13;6.60;;;;;;;11.51;80.57;99480.63;5014811;28;20392;-70
2021/09/21 02:25:38;;;;;;;9.82;6.57;;;;;;;11.57;80.23;99497.97;5031130;28;20541;-70
2021/09/21 02:28:03;;;;;;;9.43;5.88;;;;;;;11.53;80.45;99502.94;5032560;28;20026;-71
2021/09/21 02:30:28;;;;;;;10.32;6.65;;;;;;;11.52;81.26;99503.97;5031705;28;20037;-70
2021/09/21 02:32:54;;;;;;;9.70;6.68;;;;;;;11.47;81.26;99509.13;5031052;28;20029;-71
2021/09/21 02:35:19;;;;;;;10.23;6.80;;;;;;;11.43;81.86;99510.53;5029968;28;20067;-70
2021/09/21 02:37:46;;;;;;;9.95;7.22;;;;;;;11.36;82.12;99515.03;5029984;28;20091;-70
2021/09/21 02:40:13;;;;;;;8.43;6.78;;;;;;;11.34;82.49;99523.38;5026962;28;20033;-71
2021/09/21 02:42:39;;;;;;;10.30;6.85;;;;;;;11.34;83.23;99519.81;5031595;28;20021;-71
2021/09/21 02:45:05;;;;;;;10.63;6.60;;;;;;;11.33;83.32;99518.13;5032518;28;20021;-71
2021/09/21 02:47:30;;;;;;;10.15;6.72;;;;;;;11.30;83.34;99522.06;5025688;28;20350;-71
2021/09/21 02:49:55;;;;;;;9.05;6.50;;;;;;;11.25;83.30;99523.66;5030115;28;20034;-71
2021/09/21 02:52:21;;;;;;;11.82;6.63;;;;;;;11.21;83.38;99519.66;5031734;28;20073;-70
2021/09/21 02:54:46;;;;;;;11.05;6.82;;;;;;;11.14;83.43;99522.28;5017067;28;20030;-70
2021/09/21 02:57:11;;;;;;;10.52;7.03;;;;;;;11.09;84.14;99522.84;5026308;28;20029;-70
2021/09/21 02:59:36;;;;;;;11.70;6.40;;;;;;;11.10;83.66;99532.66;5031765;28;20116;-71
2021/09/21 03:02:02;;;;;;;11.85;7.03;;;;;;;10.91;83.85;99503.47;5031428;28;20029;-71
2021/09/21 03:04:34;;;;;;;9.35;6.35;;;;;;;11.02;84.10;99526.50;5031392;28;20053;-70
2021/09/21 03:07:12;;;;;;;8.57;6.68;;;;;;;10.94;84.05;99517.44;5031248;28;20510;-70
2021/09/21 03:17:57;;;;;;;8.48;6.25;;;;;;;11.03;84.22;99529.03;5029678;28;20442;-70
2021/09/21 03:20:23;;;;;;;9.10;6.28;;;;;;;11.03;84.11;99534.44;5031307;28;20053;-70
2021/09/21 03:22:48;;;;;;;9.93;6.82;;;;;;;10.92;84.36;99526.78;5031043;28;20026;-71
2021/09/21 03:25:14;;;;;;;10.25;6.88;;;;;;;10.99;83.03;99535.00;5019300;28;20025;-70
2021/09/21 03:27:39;;;;;;;9.70;6.65;;;;;;;11.04;83.45;99549.66;5027027;28;20068;-71
2021/09/21 03:30:05;;;;;;;9.80;6.55;;;;;;;10.93;83.76;99544.72;5012151;28;20113;-70
2021/09/21 03:32:30;;;;;;;10.13;6.57;;;;;;;11.04;83.68;99565.06;5029096;28;20136;-70
2021/09/21 03:34:56;;;;;;;13.13;6.38;;;;;;;11.07;83.89;99564.69;5026393;28;20026;-70
2021/09/21 03:37:21;;;;;;;9.88;6.88;;;;;;;11.03;84.22;99558.81;5025925;28;20380;-71
2021/09/21 03:39:46;;;;;;;8.27;6.38;;;;;;;10.93;83.58;99550.97;5029538;28;20052;-70
2021/09/21 03:42:12;;;;;;;9.55;6.65;;;;;;;10.96;84.02;99563.28;5030425;28;20025;-70
2021/09/21 03:44:38;;;;;;;11.45;6.55;;;;;;;10.99;83.40;99568.34;5033085;28;20033;-71
2021/09/21 03:47:03;;;;;;;9.88;6.68;;;;;;;10.81;84.02;99532.69;5033117;28;20025;-70
2021/09/21 03:49:28;;;;;;;9.68;6.78;;;;;;;10.92;84.11;99561.97;5034158;28;20109;-70
2021/09/21 03:51:54;;;;;;;9.45;6.47;;;;;;;10.89;84.06;99565.06;5035338;28;20049;-71
2021/09/21 03:54:20;;;;;;;9.70;7.00;;;;;;;10.80;84.13;99547.25;5033480;28;20480;-71
2021/09/21 03:56:45;;;;;;;12.38;7.18;;;;;;;10.87;83.82;99557.16;5034204;28;20443;-70
2021/09/21 03:59:11;;;;;;;9.88;6.97;;;;;;;10.85;83.64;99556.50;5033402;28;20025;-70
2021/09/21 04:01:36;;;;;;;9.52;6.45;;;;;;;10.84;83.64;99549.38;5031436;28;20033;-70
2021/09/21 04:04:01;;;;;;;10.93;6.80;;;;;;;10.78;83.25;99533.88;5031431;28;20029;-75
2021/09/21 04:06:28;;;;;;;14.32;6.80;;;;;;;10.78;83.47;99543.88;5021607;28;20376;-74
2021/09/21 04:08:54;;;;;;;11.40;7.28;;;;;;;10.74;84.49;99540.69;5032852;28;20487;-75
2021/09/21 04:11:21;;;;;;;11.55;6.70;;;;;;;10.86;84.99;99562.72;5030667;28;20494;-74
2021/09/21 04:13:48;;;;;;;11.82;6.57;;;;;;;10.68;85.59;99539.56;5031256;28;20021;-73
2021/09/21 04:16:14;;;;;;;10.02;6.57;;;;;;;10.79;85.96;99562.63;5035289;28;20653;-74
2021/09/21 04:18:39;;;;;;;11.32;6.72;;;;;;;10.85;86.60;99566.47;5035534;28;20044;-76
2021/09/21 04:21:05;;;;;;;9.90;6.97;;;;;;;10.73;86.60;99557.97;5030264;28;20114;-74
2021/09/21 04:23:30;;;;;;;14.88;7.20;;;;;;;10.89;84.47;99579.44;5047251;28;20030;-73
2021/09/21 04:25:57;;;;;;;9.20;6.78;;;;;;;10.68;83.83;99544.16;5024509;28;20037;-74
2021/09/21 04:28:22;;;;;;;10.57;7.20;;;;;;;10.71;83.59;99550.03;5046628;28;20059;-74
2021/09/21 04:30:49;;;;;;;9.18;6.22;;;;;;;10.99;83.13;99581.88;5042216;28;20093;-76
2021/09/21 04:33:16;;;;;;;8.55;6.57;;;;;;;10.75;83.42;99555.91;5034890;28;20040;-76
2021/09/21 04:35:42;;;;;;;9.77;7.00;;;;;;;11.01;82.94;99593.34;5016962;28;20040;-76
2021/09/21 04:38:08;;;;;;;9.40;6.57;;;;;;;10.84;82.27;99594.56;5018229;28;20021;-74
2021/09/21 04:40:34;;;;;;;10.27;6.68;;;;;;;11.02;81.67;99611.28;5035000;28;20028;-75
2021/09/21 04:42:59;;;;;;;9.10;6.97;;;;;;;10.97;81.49;99594.75;5031577;28;20029;-72
2021/09/21 04:45:24;;;;;;;11.23;6.28;;;;;;;10.93;81.29;99599.72;5030811;28;20033;-75
2021/09/21 04:47:50;;;;;;;9.27;6.45;;;;;;;10.94;81.49;99603.25;5030023;28;20061;-76
2021/09/21 04:50:15;;;;;;;9.60;7.07;;;;;;;10.95;81.13;99616.63;5034148;28;20433;-76
2021/09/21 04:52:41;;;;;;;10.40;7.20;;;;;;;11.09;80.74;99633.88;5030662;28;20021;-73
2021/09/21 04:55:07;;;;;;;9.05;6.47;;;;;;;11.07;80.85;99630.50;5040168;28;20021;-73
2021/09/21 04:57:33;;;;;;;8.48;5.97;;;;;;;11.13;80.84;99643.34;5022624;28;20029;-74
2021/09/21 04:59:59;;;;;;;9.93;6.68;;;;;;;10.98;81.41;99631.66;5031557;28;20494;-74
2021/09/21 05:02:24;;;;;;;10.98;6.10;;;;;;;11.08;81.54;99648.47;5026249;28;20045;-74
2021/09/21 05:04:50;;;;;;;8.20;6.45;;;;;;;11.18;82.28;99657.13;5033675;28;20029;-74
2021/09/21 05:07:15;;;;;;;9.90;6.47;;;;;;;10.94;82.46;99633.88;5015248;28;20542;-73
2021/09/21 05:09:40;;;;;;;9.38;6.47;;;;;;;11.11;82.27;99663.50;5028318;28;20025;-75
2021/09/21 05:12:06;;;;;;;12.57;6.40;;;;;;;11.06;82.73;99672.16;5036918;28;20497;-75
2021/09/21 05:14:32;;;;;;;9.65;6.50;;;;;;;10.94;82.43;99652.81;5033708;28;20079;-74
2021/09/21 05:16:58;;;;;;;8.77;6.30;;;;;;;11.13;82.25;99678.53;5034147;28;20029;-74
2021/09/21 05:19:23;;;;;;;8.68;6.60;;;;;;;11.09;81.78;99671.78;5035043;28;20435;-75
2021/09/21 05:21:49;;;;;;;12.77;6.65;;;;;;;10.84;81.72;99640.56;5033418;28;20037;-75
2021/09/21 05:24:14;;;;;;;8.65;6.40;;;;;;;10.88;81.77;99663.56;5032689;28;20080;-73
2021/09/21 05:26:40;;;;;;;9.57;6.47;;;;;;;10.96;81.06;99656.19;5041680;28;20113;-71
2021/09/21 05:29:05;;;;;;;8.70;5.95;;;;;;;11.01;80.97;99677.31;5023239;28;20053;-71
2021/09/21 05:31:31;;;;;;;9.57;7.13;;;;;;;11.14;79.85;99691.03;5015586;28;20022;-71
2021/09/21 05:33:56;;;;;;;9.35;6.03;;;;;;;11.07;79.91;99676.56;5028071;28;20018;-70
2021/09/21 05:36:21;;;;;;;13.10;6.47;;;;;;;11.16;79.48;99686.28;5030368;28;20060;-71
2021/09/21 05:38:47;;;;;;;11.93;7.35;;;;;;;11.19;79.98;99687.78;5033202;28;20025;-70
2021/09/21 05:41:12;;;;;;;10.82;6.88;;;;;;;11.15;79.81;99678.34;5030265;28;20029;-71
2021/09/21 05:43:37;;;;;;;10.95;6.53;;;;;;;11.18;78.99;99683.38;5023342;28;20446;-73
2021/09/21 05:46:03;;;;;;;7.85;6.22;;;;;;;11.22;78.75;99675.75;5029626;28;20030;-75
2021/09/21 05:48:28;;;;;;;8.70;6.63;;;;;;;11.29;77.48;99687.50;5031282;28;20490;-75
2021/09/21 05:50:55;;;;;;;10.13;6.22;;;;;;;11.36;77.85;99686.56;5031279;28;20672;-71
2021/09/21 05:53:20;;;;;;;12.02;6.50;;;;;;;11.41;77.69;99686.84;5037089;28;20033;-73
2021/09/21 05:55:46;;;;;;;9.02;6.82;;;;;;;11.50;76.99;99668.63;5020856;28;20029;-76
2021/09/21 05:58:11;;;;;;;9.43;6.55;;;;;;;11.66;77.10;99678.44;5032396;28;20111;-75
2021/09/21 06:00:37;;;;;;;8.75;6.28;;;;;;;11.62;76.64;99667.09;5028002;28;20025;-74
2021/09/21 06:03:03;;;;;;;11.77;6.85;;;;;;;11.77;77.13;99691.50;5014609;28;20025;-74
2021/09/21 06:05:28;;;;;;;11.10;6.20;;;;;;;11.78;76.28;99676.06;5033068;28;20499;-74
2021/09/21 06:07:54;;;;;;;8.70;6.20;;;;;;;11.85;76.91;99688.66;5031492;28;20032;-75
2021/09/21 06:10:21;;;;;;;8.25;6.15;;;;;;;11.94;77.10;99700.28;5032837;28;20047;-77
2021/09/21 06:12:47;;;;;;;8.23;6.18;;;;;;;12.00;77.75;99706.84;5027001;28;20021;-75
2021/09/21 06:15:14;;;;;;;8.90;6.50;;;;;;;11.94;77.31;99685.88;5030156;28;20371;-75
2021/09/21 06:17:40;;;;;;;11.30;7.07;;;;;;;11.90;76.60;99690.03;5030507;28;20048;-75
2021/09/21 06:20:08;;;;;;;8.43;6.22;;;;;;;12.05;76.82;99715.22;5033563;28;20021;-76
2021/09/21 06:22:33;;;;;;;10.93;5.90;;;;;;;11.98;76.69;99692.63;5032677;28;20063;-74
2021/09/21 06:24:58;;;;;;;10.35;6.45;;;;;;;12.19;75.76;99710.81;5032426;28;20033;-74
2021/09/21 06:27:24;;;;;;;9.73;6.00;;;;;;;12.11;75.17;99691.94;5035229;28;20061;-75
2021/09/21 06:29:49;;;;;;;9.32;6.15;;;;;;;12.37;74.05;99713.09;5032743;28;20087;-73
2021/09/21 06:32:14;;;;;;;9.18;6.13;;;;;;;12.48;74.02;99707.97;5040471;28;20024;-78
2021/09/21 06:34:40;;;;;;;8.10;6.13;;;;;;;12.73;74.12;99740.16;5030532;28;20033;-76
2021/09/21 06:37:05;;;;;;;9.80;6.00;;;;;;;12.69;73.57;99739.72;5048024;28;20029;-76
2021/09/21 06:39:30;;;;;;;10.75;5.65;;;;;;;12.80;72.66;99743.78;5043966;28;20026;-76
2021/09/21 06:41:56;;;;;;;10.18;6.07;;;;;;;12.81;73.31;99731.91;5036017;28;20021;-77
2021/09/21 06:44:21;;;;;;;9.93;6.55;;;;;;;13.01;73.13;99761.09;5037336;28;20029;-76
2021/09/21 06:46:46;;;;;;;7.25;5.55;;;;;;;13.08;71.74;99730.25;5030659;28;20035;-73
2021/09/21 06:49:12;;;;;;;9.13;6.30;;;;;;;13.23;71.94;99734.72;5030245;28;20026;-73
2021/09/21 06:51:37;;;;;;;10.23;6.38;;;;;;;13.46;72.09;99759.81;5025106;28;20033;-76
2021/09/21 06:54:03;;;;;;;10.32;6.15;;;;;;;13.63;70.31;99749.47;5029323;28;20510;-76
2021/09/21 06:56:28;;;;;;;9.45;6.03;;;;;;;13.79;69.86;99779.06;5034723;28;20030;-76
2021/09/21 06:58:55;;;;;;;7.65;5.85;;;;;;;13.85;69.88;99768.41;5032892;28;20033;-75
2021/09/21 07:01:21;;;;;;;7.93;5.72;;;;;;;13.74;70.18;99775.25;5032851;28;20041;-74
2021/09/21 07:03:46;;;;;;;8.90;6.03;;;;;;;13.77;69.72;99770.25;5032003;28;20026;-75
2021/09/21 07:06:12;;;;;;;12.20;6.72;;;;;;;13.75;69.37;99769.63;5038651;28;20037;-74
2021/09/21 07:08:37;;;;;;;7.65;5.55;;;;;;;13.79;68.59;99787.22;5036015;28;20064;-74
2021/09/21 07:11:03;;;;;;;7.63;6.07;;;;;;;13.77;69.03;99781.13;5030926;28;20022;-76
2021/09/21 07:13:28;;;;;;;8.68;5.70;;;;;;;13.99;68.95;99794.63;5031247;28;20068;-75
2021/09/21 07:15:53;;;;;;;6.88;5.63;;;;;;;13.75;68.22;99763.34;5018216;28;20030;-76
2021/09/21 07:18:19;;;;;;;10.50;6.25;;;;;;;13.98;68.10;99799.25;5023232;28;20025;-76
2021/09/21 07:20:44;;;;;;;6.97;5.75;;;;;;;14.05;67.70;99782.97;5032657;28;20029;-76
2021/09/21 07:23:10;;;;;;;9.20;6.35;;;;;;;14.28;66.45;99788.09;5030875;28;20030;-76
2021/09/21 07:25:35;;;;;;;11.38;5.70;;;;;;;14.38;65.25;99782.25;5028553;28;20464;-74
2021/09/21 07:28:02;;;;;;;8.18;5.97;;;;;;;14.73;64.74;99801.25;5015413;28;20033;-75
2021/09/21 07:30:31;;;;;;;9.20;5.60;;;;;;;14.81;66.07;99792.91;5033245;28;20026;-78
2021/09/21 07:32:57;;;;;;;7.30;5.53;;;;;;;15.20;64.63;99807.63;5038902;28;20541;-73
2021/09/21 07:35:22;;;;;;;8.15;5.68;;;;;;;15.32;63.58;99811.38;5026903;28;20034;-75
2021/09/21 07:37:48;;;;;;;6.65;5.38;;;;;;;15.23;62.58;99772.59;5029803;28;20035;-75
2021/09/21 07:40:14;;;;;;;10.00;5.93;;;;;;;15.65;62.43;99805.09;5020925;28;20503;-72
2021/09/21 07:42:40;;;;;;;6.30;5.05;;;;;;;16.06;60.67;99802.09;5011862;28;20030;-72
2021/09/21 07:45:07;;;;;;;9.77;6.30;;;;;;;16.06;59.32;99780.25;5020425;28;20033;-73
2021/09/21 07:47:32;;;;;;;6.65;5.47;;;;;;;17.78;55.16;99782.06;5012191;28;20372;-73
2021/09/21 07:49:59;;;;;;;7.32;5.40;;;;;;;19.11;51.17;99778.47;5021895;28;20116;-76
2021/09/21 07:52:25;;;;;;;6.82;5.30;;;;;;;19.34;50.18;99796.06;5029713;28;20017;-73
2021/09/21 07:54:50;;;;;;;6.97;4.70;;;;;;;20.06;47.54;99802.16;5031221;28;20036;-71
2021/09/21 07:57:16;;;;;;;6.53;5.22;;;;;;;20.12;48.70;99823.19;5030687;28;20022;-73
2021/09/21 07:59:42;;;;;;;11.45;5.70;;;;;;;19.32;50.14;99812.75;5026468;28;20030;-75
2021/09/21 08:02:09;;;;;;;7.57;5.22;;;;;;;18.79;51.23;99805.34;5013654;28;20030;-73
2021/09/21 08:04:35;;;;;;;10.93;5.28;;;;;;;18.88;50.26;99798.44;5032517;28;20029;-73
2021/09/21 08:07:00;;;;;;;7.05;5.15;;;;;;;19.66;48.04;99815.78;5026714;28;20033;-73
2021/09/21 08:09:25;;;;;;;5.60;4.30;;;;;;;20.04;45.69;99808.97;5035883;28;20072;-75
2021/09/21 08:11:51;;;;;;;6.05;4.60;;;;;;;20.67;43.66;99812.78;5023966;28;20180;-71
2021/09/21 08:14:16;;;;;;;5.50;4.22;;;;;;;20.87;42.92;99802.19;5025819;28;20033;-74
2021/09/21 08:16:41;;;;;;;6.35;4.30;;;;;;;20.52;44.21;99836.13;5014183;28;20072;-73
2021/09/21 08:19:06;;;;;;;6.13;4.07;;;;;;;20.74;44.31;99828.06;5024340;28;20040;-73
2021/09/21 08:21:32;;;;;;;11.55;4.93;;;;;;;20.66;43.51;99814.72;5027287;28;20053;-76
2021/09/21 08:23:57;;;;;;;8.85;4.50;;;;;;;21.02;43.37;99812.66;5030566;28;20048;-70
2021/09/21 08:26:23;;;;;;;7.68;4.43;;;;;;;22.32;41.10;99818.03;5030029;28;20033;-75
2021/09/21 08:28:48;;;;;;;4.25;3.80;;;;;;;23.53;36.83;99818.78;5027919;28;20135;-76
2021/09/21 08:31:13;;;;;;;7.00;3.13;;;;;;;25.45;32.86;99813.56;5033916;28;20025;-76
2021/09/21 08:33:39;;;;;;;6.10;3.70;;;;;;;26.71;30.70;99798.06;5035080;28;20017;-76
2021/09/21 08:36:04;;;;;;;4.85;3.25;;;;;;;26.90;29.84;99818.47;5029239;28;20033;-77
2021/09/21 08:38:30;;;;;;;4.78;3.30;;;;;;;25.82;30.52;99817.16;5035072;28;20104;-75
2021/09/21 08:40:55;;;;;;;4.00;3.17;;;;;;;25.91;30.22;99813.56;5027418;28;20028;-74
2021/09/21 08:43:21;;;;;;;3.17;2.88;;;;;;;27.06;28.76;99814.50;5037756;28;20037;-77
2021/09/21 08:45:46;;;;;;;4.50;3.03;;;;;;;27.49;27.78;99825.06;5035851;28;20048;-80
2021/09/21 08:48:11;;;;;;;4.00;3.30;;;;;;;28.74;27.46;99832.66;5036350;28;20087;-75
2021/09/21 08:50:37;;;;;;;3.55;3.08;;;;;;;29.08;25.42;99842.81;5031940;28;20022;-75
2021/09/21 08:53:03;;;;;;;4.40;3.10;;;;;;;28.11;26.18;99836.44;5017314;28;20018;-75
2021/09/21 08:55:28;;;;;;;3.67;3.10;;;;;;;28.13;26.74;99839.75;5022422;28;20021;-75
2021/09/21 08:57:54;;;;;;;5.13;2.72;;;;;;;28.85;25.97;99845.34;5030066;28;20361;-76
2021/09/21 09:00:28;;;;;;;3.42;3.13;;;;;;;29.03;24.51;99847.31;5036245;28;20479;-76
2021/09/21 09:03:09;;;;;;;7.78;3.38;;;;;;;29.92;22.84;99838.13;5033467;28;20045;-75
2021/09/21 09:05:55;;;;;;;3.90;3.30;;;;;;;29.90;24.74;99845.16;5036016;28;20033;-78
2021/09/21 09:08:35;;;;;;;5.10;3.45;;;;;;;30.10;24.83;99849.50;5031311;28;20042;-77
2021/09/21 09:11:15;;;;;;;4.75;3.60;;;;;;;30.47;23.90;99844.91;5025275;28;20083;-75
2021/09/21 09:13:41;;;;;;;4.13;3.47;;;;;;;29.10;26.18;99837.78;5034102;28;20464;-75
2021/09/21 09:16:14;;;;;;;4.35;3.50;;;;;;;31.48;23.61;99846.63;5030552;28;20021;-76
2021/09/21 09:18:41;;;;;;;4.80;3.17;;;;;;;30.97;24.28;99856.19;5034114;28;20029;-75
2021/09/21 09:21:07;;;;;;;5.55;3.47;;;;;;;30.05;23.80;99830.06;5033402;28;20025;-74
2021/09/21 09:23:32;;;;;;;4.03;2.78;;;;;;;30.29;24.13;99832.72;5034001;28;20060;-75
2021/09/21 09:25:59;;;;;;;5.90;3.35;;;;;;;29.37;24.54;99837.91;5031158;28;20056;-76
2021/09/21 09:28:26;;;;;;;4.13;3.30;;;;;;;28.89;26.28;99826.88;5027072;28;20064;-76
2021/09/21 09:30:54;;;;;;;3.67;3.08;;;;;;;30.46;24.87;99829.31;5034146;28;20131;-76
2021/09/21 09:33:20;;;;;;;4.05;3.50;;;;;;;30.22;25.13;99843.44;5025648;28;20540;-76
2021/09/21 09:35:49;;;;;;;4.60;3.40;;;;;;;29.79;24.52;99826.91;5025534;28;20440;-76
2021/09/21 09:38:17;;;;;;;3.13;2.83;;;;;;;30.56;25.10;99848.66;5032587;28;20538;-76
2021/09/21 09:40:45;;;;;;;3.92;2.75;;;;;;;30.96;24.27;99846.13;5028989;28;20066;-71
2021/09/21 09:43:11;;;;;;;4.17;3.17;;;;;;;30.92;24.08;99845.94;5025777;28;20495;-73
2021/09/21 09:45:40;;;;;;;3.53;3.22;;;;;;;31.22;22.04;99850.00;5027869;28;20029;-78
2021/09/21 09:48:07;;;;;;;4.55;3.78;;;;;;;27.12;25.96;99840.31;5030633;28;20029;-76
2021/09/21 09:50:35;;;;;;;6.75;3.70;;;;;;;28.97;25.19;99848.50;5026428;28;20029;-74
2021/09/21 09:53:23;;;;;;;4.60;3.15;;;;;;;30.43;24.49;99843.91;5032541;28;20018;-74
2021/09/21 09:55:57;;;;;;;3.67;3.25;;;;;;;30.84;23.70;99855.06;5033548;28;20499;-72
2021/09/21 09:58:23;;;;;;;3.80;2.83;;;;;;;31.17;23.78;99855.69;5031465;28;20029;-76
2021/09/21 10:00:49;;;;;;;3.05;2.67;;;;;;;31.47;23.62;99838.53;5031263;28;20115;-74
2021/09/21 10:03:15;;;;;;;5.18;3.10;;;;;;;30.94;22.73;99856.78;5033586;28;20021;-71
2021/09/21 10:05:41;;;;;;;4.68;3.28;;;;;;;31.47;23.39;99855.31;5033420;28;20117;-76
2021/09/21 10:08:08;;;;;;;3.40;3.10;;;;;;;31.14;23.24;99861.09;5034261;28;20029;-74
2021/09/21 10:10:36;;;;;;;5.95;2.97;;;;;;;30.94;23.91;99856.78;5032999;28;20025;-75
2021/09/21 10:13:06;;;;;;;4.45;3.78;;;;;;;28.95;23.69;99850.78;5031143;28;20057;-72
2021/09/21 10:15:32;;;;;;;4.82;3.00;;;;;;;28.32;27.08;99870.44;5029918;28;20876;-73
2021/09/21 10:17:58;;;;;;;4.88;3.75;;;;;;;27.94;26.63;99873.06;5032187;28;20112;-73
2021/09/21 10:20:44;;;;;;;4.30;3.15;;;;;;;27.65;28.13;99884.13;5034064;28;20029;-71
2021/09/21 10:23:10;;;;;;;5.03;3.40;;;;;;;28.63;26.59;99874.56;5031956;28;20034;-73
2021/09/21 10:25:39;;;;;;;4.63;3.75;;;;;;;28.68;27.08;99872.84;5033749;28;20051;-73
2021/09/21 10:28:16;;;;;;;3.88;3.00;;;;;;;30.37;25.34;99885.06;5033319;28;20033;-72
2021/09/21 10:30:58;;;;;;;3.72;3.22;;;;;;;30.96;23.89;99877.69;5018246;28;20508;-73
2021/09/21 10:33:25;;;;;;;5.03;3.03;;;;;;;31.09;23.80;99878.81;5030697;28;20037;-73
2021/09/21 10:35:52;;;;;;;6.47;3.25;;;;;;;31.76;23.14;99882.88;5023456;28;20505;-72
2021/09/21 10:38:19;;;;;;;5.45;3.40;;;;;;;31.93;22.37;99877.41;5032260;28;20029;-72
2021/09/21 10:40:47;;;;;;;5.38;2.70;;;;;;;31.82;22.88;99868.41;5016467;28;20426;-72
2021/09/21 10:43:31;;;;;;;5.13;3.27;;;;;;;30.34;23.02;99864.16;5009655;28;20120;-73
2021/09/21 10:46:11;;;;;;;5.05;3.17;;;;;;;31.10;23.84;99885.22;5023783;28;20479;-71
2021/09/21 10:48:41;;;;;;;4.03;3.63;;;;;;;30.08;23.92;99888.09;5023368;28;20099;-72
2021/09/21 10:51:08;;;;;;;4.40;3.33;;;;;;;31.41;23.64;99857.41;5013550;28;20030;-72
2021/09/21 10:53:34;;;;;;;4.90;3.10;;;;;;;30.96;24.26;99886.09;5015817;28;20116;-72
2021/09/21 10:56:05;;;;;;;5.78;3.25;;;;;;;29.89;26.62;99885.31;5025279;28;20029;-72
2021/09/21 10:58:31;;;;;;;4.20;3.78;;;;;;;28.18;26.16;99882.28;5027090;28;20537;-72
2021/09/21 11:00:57;;;;;;;4.30;3.20;;;;;;;27.31;27.70;99880.19;5021977;28;20029;-73
2021/09/21 11:03:24;;;;;;;4.55;3.25;;;;;;;27.07;28.71;99877.25;5027386;28;20076;-71
2021/09/21 11:05:49;;;;;;;4.68;3.10;;;;;;;25.75;30.37;99886.72;5026397;28;20028;-70
2021/09/21 11:08:16;;;;;;;4.13;3.35;;;;;;;26.09;30.29;99880.63;5011738;28;20049;-71
2021/09/21 11:10:44;;;;;;;5.78;3.40;;;;;;;26.25;29.38;99871.16;5008197;28;20038;-72
2021/09/21 11:13:15;;;;;;;3.75;3.00;;;;;;;28.38;27.40;99864.53;5013529;28;20518;-74
2021/09/21 11:15:41;;;;;;;4.40;3.20;;;;;;;29.16;25.61;99867.22;5031033;28;20053;-72
2021/09/21 11:18:09;;;;;;;4.10;3.03;;;;;;;30.42;25.07;99856.19;5026229;28;20037;-69
2021/09/21 11:20:57;;;;;;;3.38;2.75;;;;;;;30.56;25.42;99859.81;5028598;28;20059;-71
2021/09/21 11:23:26;;;;;;;3.45;3.05;;;;;;;30.57;24.18;99869.84;5028236;28;20040;-72
2021/09/21 11:25:54;;;;;;;4.43;3.13;;;;;;;30.24;25.57;99871.91;5026119;28;20028;-72
2021/09/21 11:28:20;;;;;;;3.70;3.40;;;;;;;30.42;23.85;99864.56;5025556;28;20059;-70
2021/09/21 11:30:46;;;;;;;4.25;3.20;;;;;;;31.48;23.68;99868.19;5028179;28;20115;-73
2021/09/21 11:33:26;;;;;;;4.32;2.88;;;;;;;32.07;23.21;99868.94;5028351;28;20036;-72
2021/09/21 11:36:08;;;;;;;4.90;3.10;;;;;;;31.58;23.54;99868.75;5026169;28;20033;-72
2021/09/21 11:38:36;;;;;;;3.88;2.65;;;;;;;31.99;23.85;99855.69;5027449;28;20041;-72
2021/09/21 11:41:02;;;;;;;4.18;2.95;;;;;;;32.89;21.61;99861.03;5027249;28;20047;-72
2021/09/21 11:43:29;;;;;;;3.63;2.78;;;;;;;33.11;21.82;99858.13;5019353;28;20029;-71